createdAt,value
2023-03-13T00:01:49.204Z,5.56
2023-03-13T00:04:17.506Z,5.79
2023-03-13T00:06:45.994Z,5.62
2023-03-13T00:09:15.488Z,5.36
2023-03-13T00:11:44.809Z,5.00
2023-03-13T00:14:13.287Z,4.53
2023-03-13T00:16:41.581Z,4.45
2023-03-13T00:19:10.327Z,4.51
2023-03-13T00:21:41.473Z,4.71
2023-03-13T00:24:11.555Z,4.99
2023-03-13T00:26:39.834Z,5.05
2023-03-13T00:29:08.277Z,4.82
2023-03-13T00:31:36.640Z,4.70
2023-03-13T00:34:05.308Z,4.69
2023-03-13T00:36:35.336Z,4.70
2023-03-13T00:39:06.108Z,4.87
2023-03-13T00:41:37.318Z,4.84
2023-03-13T00:44:07.239Z,4.81
2023-03-13T00:46:36.188Z,4.78
2023-03-13T00:49:04.887Z,4.73
2023-03-13T00:51:35.952Z,4.72
2023-03-13T00:54:05.101Z,4.55
2023-03-13T00:56:35.031Z,4.63
2023-03-13T00:59:03.828Z,4.42
2023-03-13T01:01:34.796Z,4.04
2023-03-13T01:04:06.139Z,4.04
2023-03-13T01:06:37.262Z,4.35
2023-03-13T01:09:07.240Z,4.72
2023-03-13T01:11:37.189Z,4.97
2023-03-13T01:14:09.443Z,4.98
2023-03-13T01:16:38.633Z,5.04
2023-03-13T01:19:10.162Z,5.02
2023-03-13T01:21:40.105Z,4.59
2023-03-13T01:24:09.204Z,4.40
2023-03-13T01:26:37.388Z,4.55
2023-03-13T01:29:05.554Z,4.79
2023-03-13T01:31:35.808Z,4.99
2023-03-13T01:34:08.473Z,4.94
2023-03-13T01:36:38.074Z,4.87
2023-03-13T01:39:07.158Z,5.19
2023-03-13T01:41:35.777Z,5.33
2023-03-13T01:44:04.296Z,5.33
2023-03-13T01:46:36.344Z,5.06
2023-03-13T01:49:34.990Z,4.88
2023-03-13T01:52:28.736Z,5.11
2023-03-13T01:55:12.621Z,5.33
2023-03-13T01:57:50.612Z,5.64
2023-03-13T02:00:25.184Z,5.52
2023-03-13T02:02:58.071Z,4.99
2023-03-13T02:05:29.145Z,4.81
2023-03-13T02:08:12.558Z,5.03
2023-03-13T02:10:50.053Z,5.09
2023-03-13T02:13:20.641Z,5.11
2023-03-13T02:15:49.434Z,5.06
2023-03-13T02:18:18.390Z,4.73
2023-03-13T02:20:50.887Z,4.15
2023-03-13T02:23:31.674Z,4.18
2023-03-13T02:26:00.617Z,4.36
2023-03-13T02:28:39.207Z,4.30
2023-03-13T02:31:10.877Z,4.34
2023-03-13T02:33:41.275Z,4.10
2023-03-13T02:36:14.879Z,4.11
2023-03-13T02:39:02.728Z,3.97
2023-03-13T02:41:33.983Z,3.95
2023-03-13T02:44:02.558Z,3.95
2023-03-13T02:46:32.650Z,3.91
2023-03-13T02:49:20.600Z,4.02
2023-03-13T02:51:49.859Z,3.70
2023-03-13T02:54:33.621Z,3.60
2023-03-13T02:57:04.519Z,3.45
2023-03-13T02:59:33.792Z,3.49
2023-03-13T03:02:02.025Z,3.55
2023-03-13T03:04:31.032Z,3.54
2023-03-13T03:06:59.422Z,3.83
2023-03-13T03:09:28.267Z,3.82
2023-03-13T03:11:59.363Z,3.49
2023-03-13T03:14:29.231Z,3.25
2023-03-13T03:16:57.847Z,3.49
2023-03-13T03:19:26.835Z,3.71
2023-03-13T03:21:55.966Z,3.96
2023-03-13T03:24:24.087Z,3.88
2023-03-13T03:26:52.308Z,3.90
2023-03-13T03:29:29.618Z,4.00
2023-03-13T03:31:58.341Z,3.94
2023-03-13T03:34:26.579Z,3.78
2023-03-13T03:36:56.006Z,3.89
2023-03-13T03:39:24.523Z,3.91
2023-03-13T03:41:52.813Z,3.81
2023-03-13T03:44:21.824Z,3.71
2023-03-13T03:46:58.143Z,3.81
2023-03-13T03:49:27.420Z,3.96
2023-03-13T03:51:55.772Z,3.93
2023-03-13T03:54:29.516Z,4.12
2023-03-13T03:56:58.502Z,3.75
2023-03-13T03:59:27.290Z,3.70
2023-03-13T04:02:03.605Z,4.14
2023-03-13T04:04:32.750Z,4.09
2023-03-13T04:07:11.057Z,4.05
2023-03-13T04:09:40.723Z,4.13
2023-03-13T04:12:10.898Z,4.06
2023-03-13T04:14:43.599Z,4.20
2023-03-13T04:17:14.303Z,4.42
2023-03-13T04:19:44.381Z,4.52
2023-03-13T04:22:12.913Z,4.14
2023-03-13T04:24:47.203Z,3.87
2023-03-13T04:27:15.690Z,3.99
2023-03-13T04:29:45.233Z,4.27
2023-03-13T04:32:39.509Z,4.47
2023-03-13T04:35:26.182Z,4.61
2023-03-13T04:38:14.671Z,4.62
2023-03-13T04:40:51.895Z,4.55
2023-03-13T04:43:38.757Z,4.66
2023-03-13T04:46:39.511Z,4.82
2023-03-13T04:49:27.817Z,4.91
2023-03-13T04:52:08.911Z,4.99
2023-03-13T04:55:12.483Z,5.07
2023-03-13T04:57:47.216Z,5.17
2023-03-13T05:00:30.186Z,5.27
2023-03-13T05:03:25.114Z,5.45
2023-03-13T05:06:22.335Z,5.47
2023-03-13T05:09:10.987Z,5.28
2023-03-13T05:11:58.366Z,5.22
2023-03-13T05:15:05.557Z,5.10
2023-03-13T05:17:43.960Z,5.00
2023-03-13T05:20:38.792Z,5.02
2023-03-13T05:23:25.451Z,5.22
2023-03-13T05:26:12.471Z,5.33
2023-03-13T05:28:53.954Z,5.24
2023-03-13T05:31:48.077Z,5.02
2023-03-13T05:34:39.151Z,5.11
2023-03-13T05:37:25.191Z,5.08
2023-03-13T05:40:14.201Z,4.88
2023-03-13T05:42:55.379Z,4.75
2023-03-13T05:45:43.616Z,4.67
2023-03-13T05:48:28.712Z,4.46
2023-03-13T05:51:22.976Z,4.06
2023-03-13T05:53:54.162Z,4.15
2023-03-13T05:56:52.206Z,4.50
2023-03-13T05:59:55.341Z,4.81
2023-03-13T06:02:44.228Z,5.08
2023-03-13T06:05:16.743Z,5.28
2023-03-13T06:07:46.409Z,5.37
2023-03-13T06:10:15.915Z,5.56
2023-03-13T06:12:44.530Z,5.66
2023-03-13T06:15:14.303Z,5.74
2023-03-13T06:17:56.825Z,5.91
2023-03-13T06:20:25.328Z,5.99
2023-03-13T06:22:53.556Z,5.64
2023-03-13T06:25:22.708Z,5.85
2023-03-13T06:27:51.098Z,6.30
2023-03-13T06:30:19.208Z,6.95
2023-03-13T06:32:47.462Z,7.22
2023-03-13T06:35:15.651Z,7.35
2023-03-13T06:37:44.055Z,8.16
2023-03-13T06:40:13.212Z,9.30
2023-03-13T06:42:41.316Z,10.90
2023-03-13T06:45:10.286Z,12.00
2023-03-13T06:47:38.339Z,12.16
2023-03-13T06:50:07.209Z,12.16
2023-03-13T06:52:43.522Z,12.41
2023-03-13T06:55:13.050Z,12.93
2023-03-13T06:57:41.686Z,13.12
2023-03-13T07:00:11.865Z,13.15
2023-03-13T07:02:40.007Z,13.03
2023-03-13T07:05:09.233Z,12.74
2023-03-13T07:07:37.712Z,12.56
2023-03-13T07:10:07.692Z,12.43
2023-03-13T07:12:35.770Z,12.36
2023-03-13T07:15:06.006Z,12.81
2023-03-13T07:17:34.475Z,13.37
2023-03-13T07:20:10.663Z,13.19
2023-03-13T07:22:38.950Z,13.31
2023-03-13T07:25:07.971Z,13.21
2023-03-13T07:27:36.438Z,12.90
2023-03-13T07:30:05.678Z,12.65
2023-03-13T07:32:34.486Z,12.44
2023-03-13T07:35:04.791Z,12.25
2023-03-13T07:37:33.030Z,12.45
2023-03-13T07:40:01.136Z,13.10
2023-03-13T07:42:29.421Z,13.70
2023-03-13T07:44:57.536Z,13.89
2023-03-13T07:47:25.624Z,13.89
2023-03-13T07:49:54.111Z,14.27
2023-03-13T07:52:23.611Z,14.23
2023-03-13T07:54:52.442Z,14.18
2023-03-13T07:57:21.411Z,13.86
2023-03-13T07:59:49.515Z,13.52
2023-03-13T08:02:18.202Z,13.20
2023-03-13T08:04:46.816Z,13.13
2023-03-13T08:07:15.084Z,13.17
2023-03-13T08:09:43.823Z,12.93
2023-03-13T08:12:12.093Z,12.98
2023-03-13T08:14:40.236Z,13.26
2023-03-13T08:17:08.452Z,13.36
2023-03-13T08:19:36.633Z,13.61
2023-03-13T08:22:04.870Z,13.79
2023-03-13T08:24:32.910Z,14.15
2023-03-13T08:27:01.017Z,14.79
2023-03-13T08:29:29.071Z,15.28
2023-03-13T08:31:57.257Z,15.75
2023-03-13T08:34:25.356Z,16.33
2023-03-13T08:36:53.344Z,16.81
2023-03-13T08:39:21.885Z,17.41
2023-03-13T08:41:50.551Z,17.56
2023-03-13T08:44:20.602Z,17.67
2023-03-13T08:46:49.520Z,17.95
2023-03-13T08:49:17.886Z,18.45
2023-03-13T08:51:46.240Z,18.43
2023-03-13T08:54:14.455Z,18.18
2023-03-13T08:56:43.755Z,18.08
2023-03-13T08:59:12.654Z,18.34
2023-03-13T09:01:41.695Z,18.66
2023-03-13T09:04:09.863Z,18.67
2023-03-13T09:06:39.481Z,18.48
2023-03-13T09:09:09.082Z,18.22
2023-03-13T09:11:40.432Z,18.64
2023-03-13T09:14:10.742Z,19.07
2023-03-13T09:16:38.890Z,19.20
2023-03-13T09:19:07.428Z,19.51
2023-03-13T09:21:36.054Z,19.41
2023-03-13T09:24:04.871Z,19.03
2023-03-13T09:26:32.979Z,19.02
2023-03-13T09:29:01.426Z,18.77
2023-03-13T09:31:31.592Z,18.47
2023-03-13T09:34:00.737Z,18.37
2023-03-13T09:36:29.229Z,18.17
2023-03-13T09:38:59.481Z,17.93
2023-03-13T09:41:39.988Z,17.22
2023-03-13T09:44:14.452Z,16.97
2023-03-13T09:46:48.346Z,17.29
2023-03-13T09:49:29.744Z,17.51
2023-03-13T09:52:16.422Z,17.71
2023-03-13T09:54:44.699Z,18.11
2023-03-13T09:57:22.903Z,18.31
2023-03-13T09:59:59.378Z,18.25
2023-03-13T10:02:29.883Z,18.08
2023-03-13T10:05:14.504Z,18.26
2023-03-13T10:07:43.122Z,18.16
2023-03-13T10:10:15.735Z,17.69
2023-03-13T10:12:53.144Z,17.46
2023-03-13T10:15:45.416Z,17.36
2023-03-13T10:18:22.457Z,17.17
2023-03-13T10:21:05.078Z,17.32
2023-03-13T10:24:12.158Z,17.40
2023-03-13T10:26:40.451Z,17.38
2023-03-13T10:29:25.368Z,17.58
2023-03-13T10:32:15.352Z,17.63
2023-03-13T10:35:03.483Z,17.48
2023-03-13T10:37:40.325Z,17.24
2023-03-13T10:40:24.830Z,17.05
2023-03-13T10:43:01.189Z,16.95
2023-03-13T10:45:34.030Z,16.65
2023-03-13T10:48:12.695Z,16.32
2023-03-13T10:50:46.571Z,16.30
2023-03-13T10:53:33.192Z,16.24
2023-03-13T10:56:06.144Z,16.06
2023-03-13T10:58:37.640Z,16.24
2023-03-13T11:01:22.402Z,16.07
2023-03-13T11:03:53.520Z,15.70
2023-03-13T11:06:37.428Z,15.20
2023-03-13T11:09:13.937Z,14.81
2023-03-13T11:11:45.214Z,14.87
2023-03-13T11:14:16.475Z,14.93
2023-03-13T11:16:59.003Z,14.74
2023-03-13T11:19:35.976Z,14.79
2023-03-13T11:22:35.071Z,14.96
2023-03-13T11:25:18.679Z,14.95
2023-03-13T11:27:58.928Z,14.92
2023-03-13T11:30:46.072Z,14.93
2023-03-13T11:33:36.814Z,14.98
2023-03-13T11:36:19.793Z,14.85
2023-03-13T11:39:02.690Z,14.83
2023-03-13T11:42:02.708Z,15.00
2023-03-13T11:44:31.281Z,15.01
2023-03-13T11:47:17.464Z,14.89
2023-03-13T11:49:59.948Z,14.38
2023-03-13T11:52:37.286Z,13.91
2023-03-13T11:55:14.571Z,13.32
2023-03-13T11:57:57.384Z,12.66
2023-03-13T12:00:35.412Z,12.40
2023-03-13T12:03:13.823Z,12.70
2023-03-13T12:05:47.460Z,13.09
2023-03-13T12:08:30.632Z,13.42
2023-03-13T12:11:43.777Z,13.83
2023-03-13T12:14:32.126Z,14.11
2023-03-13T12:17:06.424Z,14.32
2023-03-13T12:19:46.501Z,14.49
2023-03-13T12:22:25.246Z,14.55
2023-03-13T12:25:17.362Z,14.60
2023-03-13T12:28:12.697Z,14.69
2023-03-13T12:30:45.936Z,14.82
2023-03-13T12:33:24.702Z,15.03
2023-03-13T12:36:22.784Z,15.17
2023-03-13T12:39:00.475Z,15.19
2023-03-13T12:41:36.310Z,14.77
2023-03-13T12:44:09.675Z,14.61
2023-03-13T12:46:43.224Z,14.65
2023-03-13T12:49:18.564Z,14.74
2023-03-13T12:51:58.665Z,14.78
2023-03-13T12:54:55.567Z,14.99
2023-03-13T12:57:57.397Z,15.20
2023-03-13T13:00:30.232Z,15.21
2023-03-13T13:03:07.031Z,15.11
2023-03-13T13:05:35.520Z,15.05
2023-03-13T13:08:04.713Z,14.99
2023-03-13T13:10:32.881Z,15.01
2023-03-13T13:13:16.306Z,15.07
2023-03-13T13:16:06.373Z,15.27
2023-03-13T13:18:35.385Z,15.11
2023-03-13T13:21:05.080Z,14.47
2023-03-13T13:23:38.967Z,14.33
2023-03-13T13:26:36.284Z,14.44
2023-03-13T13:29:13.544Z,14.55
2023-03-13T13:31:47.778Z,14.37
2023-03-13T13:34:31.361Z,13.86
2023-03-13T13:37:23.218Z,13.76
2023-03-13T13:39:53.721Z,13.95
2023-03-13T13:42:36.805Z,14.18
2023-03-13T13:45:25.790Z,14.19
2023-03-13T13:48:12.848Z,14.12
2023-03-13T13:51:14.419Z,13.96
2023-03-13T13:53:54.966Z,14.07
2023-03-13T13:56:29.074Z,14.17
2023-03-13T13:59:00.633Z,13.89
2023-03-13T14:01:29.151Z,13.11
2023-03-13T14:04:28.913Z,13.10
2023-03-13T14:07:02.327Z,13.12
2023-03-13T14:09:49.910Z,13.12
2023-03-13T14:12:30.013Z,13.32
2023-03-13T14:15:08.551Z,13.41
2023-03-13T14:17:51.579Z,13.22
2023-03-13T14:20:39.592Z,13.12
2023-03-13T14:23:10.678Z,13.27
2023-03-13T14:25:44.022Z,13.36
2023-03-13T14:28:23.468Z,13.38
2023-03-13T14:30:57.872Z,13.17
2023-03-13T14:33:27.947Z,12.94
2023-03-13T14:35:58.112Z,12.88
2023-03-13T14:38:30.197Z,13.01
2023-03-13T14:40:58.644Z,13.06
2023-03-13T14:43:36.842Z,13.00
2023-03-13T14:46:22.814Z,13.05
2023-03-13T14:48:55.750Z,13.04
2023-03-13T14:51:27.929Z,13.00
2023-03-13T14:54:02.054Z,12.91
2023-03-13T14:56:43.642Z,12.76
2023-03-13T14:59:24.139Z,12.06
2023-03-13T15:02:14.136Z,12.01
2023-03-13T15:04:53.098Z,12.18
2023-03-13T15:07:22.542Z,12.29
2023-03-13T15:09:51.852Z,12.25
2023-03-13T15:12:23.800Z,11.90
2023-03-13T15:14:53.214Z,11.85
2023-03-13T15:17:26.919Z,11.92
2023-03-13T15:19:59.540Z,11.90
2023-03-13T15:22:38.158Z,11.94
2023-03-13T15:25:18.000Z,12.04
2023-03-13T15:27:46.983Z,11.93
2023-03-13T15:30:17.175Z,11.86
2023-03-13T15:32:47.136Z,11.91
2023-03-13T15:35:27.468Z,12.00
2023-03-13T15:38:00.911Z,12.07
2023-03-13T15:40:31.218Z,12.11
2023-03-13T15:42:59.680Z,12.09
2023-03-13T15:45:28.261Z,12.17
2023-03-13T15:47:58.526Z,12.16
2023-03-13T15:50:30.874Z,12.15
2023-03-13T15:53:00.969Z,12.08
2023-03-13T15:55:30.085Z,11.99
2023-03-13T15:57:58.248Z,11.87
2023-03-13T16:00:27.120Z,11.75
2023-03-13T16:02:55.715Z,11.64
2023-03-13T16:05:23.925Z,11.51
2023-03-13T16:07:52.072Z,11.32
2023-03-13T16:10:25.553Z,11.17
2023-03-13T16:12:54.674Z,11.08
2023-03-13T16:15:22.808Z,11.03
2023-03-13T16:17:51.094Z,10.97
2023-03-13T16:20:22.169Z,10.85
2023-03-13T16:22:53.029Z,10.73
2023-03-13T16:25:22.871Z,10.60
2023-03-13T16:27:53.576Z,10.48
2023-03-13T16:30:31.733Z,10.38
2023-03-13T16:33:00.676Z,10.33
2023-03-13T16:35:29.828Z,10.34
2023-03-13T16:37:58.921Z,10.21
2023-03-13T16:40:30.924Z,10.10
2023-03-13T16:42:59.626Z,10.00
2023-03-13T16:45:28.134Z,9.94
2023-03-13T16:47:56.505Z,9.87
2023-03-13T16:50:38.482Z,9.82
2023-03-13T16:53:06.605Z,9.74
2023-03-13T16:55:37.022Z,9.69
2023-03-13T16:58:05.697Z,9.58
2023-03-13T17:00:33.836Z,9.50
2023-03-13T17:03:02.248Z,9.41
2023-03-13T17:05:30.630Z,9.37
2023-03-13T17:07:58.762Z,9.40
2023-03-13T17:10:30.355Z,9.42
2023-03-13T17:12:59.027Z,9.41
2023-03-13T17:15:29.049Z,9.41
2023-03-13T17:17:57.565Z,9.28
2023-03-13T17:20:28.834Z,9.14
2023-03-13T17:22:57.502Z,9.02
2023-03-13T17:25:25.811Z,8.98
2023-03-13T17:27:54.612Z,8.99
2023-03-13T17:30:30.111Z,9.00
2023-03-13T17:32:59.209Z,8.91
2023-03-13T17:35:27.443Z,8.73
2023-03-13T17:37:55.630Z,8.66
2023-03-13T17:40:26.802Z,8.53
2023-03-13T17:42:56.402Z,8.35
2023-03-13T17:45:25.400Z,8.32
2023-03-13T17:47:54.385Z,8.28
2023-03-13T17:50:29.526Z,8.25
2023-03-13T17:52:57.639Z,8.26
2023-03-13T17:55:25.697Z,8.29
2023-03-13T17:57:53.782Z,8.32
2023-03-13T18:00:29.455Z,8.32
2023-03-13T18:02:59.564Z,8.34
2023-03-13T18:05:28.169Z,8.37
2023-03-13T18:07:56.835Z,8.36
2023-03-13T18:10:30.415Z,8.34
2023-03-13T18:12:58.697Z,8.33
2023-03-13T18:15:29.528Z,8.35
2023-03-13T18:17:57.715Z,8.38
2023-03-13T18:20:28.365Z,8.42
2023-03-13T18:23:00.355Z,8.48
2023-03-13T18:25:29.812Z,8.58
2023-03-13T18:27:58.376Z,8.64
2023-03-13T18:30:27.702Z,8.61
2023-03-13T18:32:56.240Z,8.53
2023-03-13T18:35:24.294Z,8.48
2023-03-13T18:37:52.918Z,8.52
2023-03-13T18:40:24.770Z,8.54
2023-03-13T18:42:52.836Z,8.53
2023-03-13T18:45:23.507Z,8.56
2023-03-13T18:47:52.018Z,8.59
2023-03-13T18:50:31.694Z,8.58
2023-03-13T18:53:00.443Z,8.63
2023-03-13T18:55:30.817Z,8.69
2023-03-13T18:57:59.501Z,8.63
2023-03-13T19:00:30.124Z,8.61
2023-03-13T19:02:58.548Z,8.63
2023-03-13T19:05:26.927Z,8.65
2023-03-13T19:07:55.154Z,8.61
2023-03-13T19:10:31.454Z,8.70
2023-03-13T19:12:59.711Z,8.68
2023-03-13T19:15:30.266Z,8.61
2023-03-13T19:18:02.696Z,8.57
2023-03-13T19:20:31.612Z,8.56
2023-03-13T19:23:00.985Z,8.55
2023-03-13T19:25:29.691Z,8.56
2023-03-13T19:27:57.744Z,8.59
2023-03-13T19:30:26.778Z,8.52
2023-03-13T19:32:54.980Z,8.50
2023-03-13T19:35:23.276Z,8.48
2023-03-13T19:37:51.968Z,8.42
2023-03-13T19:40:26.214Z,8.37
2023-03-13T19:42:54.562Z,8.36
2023-03-13T19:45:22.969Z,8.33
2023-03-13T19:47:51.057Z,8.27
2023-03-13T19:50:23.091Z,8.19
2023-03-13T19:52:51.249Z,8.16
2023-03-13T19:55:19.371Z,8.19
2023-03-13T19:57:47.493Z,8.23
2023-03-13T20:00:22.518Z,8.20
2023-03-13T20:02:55.032Z,8.17
2023-03-13T20:05:24.696Z,8.11
2023-03-13T20:07:54.327Z,8.04
2023-03-13T20:10:22.635Z,7.99
2023-03-13T20:12:50.692Z,7.91
2023-03-13T20:15:20.208Z,7.88
2023-03-13T20:17:48.272Z,7.85
2023-03-13T20:20:16.817Z,7.76
2023-03-13T20:22:45.264Z,7.77
2023-03-13T20:25:13.558Z,7.77
2023-03-13T20:27:42.054Z,7.82
2023-03-13T20:30:10.896Z,7.83
2023-03-13T20:32:49.049Z,7.89
2023-03-13T20:35:25.310Z,7.98
2023-03-13T20:37:54.814Z,7.98
2023-03-13T20:40:23.307Z,7.82
2023-03-13T20:42:51.450Z,7.75
2023-03-13T20:45:19.486Z,7.59
2023-03-13T20:47:47.605Z,7.41
2023-03-13T20:50:16.669Z,7.41
2023-03-13T20:52:46.138Z,7.51
2023-03-13T20:55:15.495Z,7.75
2023-03-13T20:57:43.521Z,7.99
2023-03-13T21:00:14.938Z,8.12
2023-03-13T21:02:43.628Z,8.09
2023-03-13T21:05:12.014Z,8.04
2023-03-13T21:07:40.355Z,8.18
2023-03-13T21:10:09.660Z,8.21
2023-03-13T21:12:37.927Z,8.05
2023-03-13T21:15:08.085Z,7.77
2023-03-13T21:17:36.689Z,8.02
2023-03-13T21:20:13.508Z,8.02
2023-03-13T21:22:43.369Z,7.92
2023-03-13T21:25:12.489Z,8.06
2023-03-13T21:27:43.850Z,8.31
2023-03-13T21:30:20.034Z,8.27
2023-03-13T21:32:48.614Z,8.18
2023-03-13T21:35:17.090Z,8.20
2023-03-13T21:37:46.188Z,8.28
2023-03-13T21:40:14.658Z,8.45
2023-03-13T21:42:42.733Z,8.42
2023-03-13T21:45:11.825Z,8.37
2023-03-13T21:47:40.443Z,8.33
2023-03-13T21:50:10.157Z,8.54
2023-03-13T21:52:41.395Z,8.68
2023-03-13T21:55:12.835Z,8.73
2023-03-13T21:57:41.215Z,8.88
2023-03-13T22:00:10.488Z,8.97
2023-03-13T22:02:41.530Z,8.95
2023-03-13T22:05:10.626Z,8.83
2023-03-13T22:07:38.792Z,8.69
2023-03-13T22:10:07.555Z,8.42
2023-03-13T22:12:38.322Z,8.32
2023-03-13T22:15:07.407Z,8.12
2023-03-13T22:17:37.030Z,7.88
2023-03-13T22:20:06.619Z,7.55
2023-03-13T22:22:34.899Z,7.27
2023-03-13T22:25:04.621Z,7.24
2023-03-13T22:27:32.790Z,7.33
2023-03-13T22:30:01.043Z,7.47
2023-03-13T22:32:30.518Z,7.50
2023-03-13T22:34:58.865Z,7.34
2023-03-13T22:37:27.522Z,7.18
2023-03-13T22:39:56.415Z,7.21
2023-03-13T22:42:26.249Z,7.19
2023-03-13T22:44:55.747Z,7.21
2023-03-13T22:47:25.927Z,7.32
2023-03-13T22:49:54.082Z,7.27
2023-03-13T22:52:28.941Z,7.22
2023-03-13T22:54:58.202Z,7.27
2023-03-13T22:57:26.413Z,7.39
2023-03-13T22:59:59.356Z,7.46
2023-03-13T23:02:28.095Z,7.50
2023-03-13T23:04:58.668Z,7.42
2023-03-13T23:07:28.733Z,7.36
2023-03-13T23:09:58.322Z,7.40
2023-03-13T23:12:30.720Z,7.44
2023-03-13T23:15:02.267Z,7.38
2023-03-13T23:17:32.949Z,7.32
2023-03-13T23:20:10.728Z,7.28
2023-03-13T23:22:47.527Z,7.31
2023-03-13T23:25:16.191Z,7.39
2023-03-13T23:27:44.941Z,7.45
2023-03-13T23:30:15.061Z,7.40
2023-03-13T23:32:46.366Z,7.42
2023-03-13T23:35:17.032Z,7.32
2023-03-13T23:37:49.345Z,7.33
2023-03-13T23:40:17.891Z,7.35
2023-03-13T23:42:47.595Z,7.24
2023-03-13T23:45:16.815Z,7.21
2023-03-13T23:47:45.915Z,7.23
2023-03-13T23:50:16.084Z,7.27
2023-03-13T23:52:44.196Z,7.30
2023-03-13T23:55:12.957Z,7.22
2023-03-13T23:57:41.347Z,7.20
